createdAt,value
2023-05-20T00:00:49.226Z,4.83
2023-05-20T00:03:17.722Z,5.77
2023-05-20T00:05:46.468Z,8.90
2023-05-20T00:08:16.232Z,4.43
2023-05-20T00:10:44.630Z,7.57
2023-05-20T00:13:13.152Z,5.83
2023-05-20T00:15:41.582Z,6.27
2023-05-20T00:18:10.054Z,5.67
2023-05-20T00:20:38.586Z,4.93
2023-05-20T00:23:06.991Z,7.03
2023-05-20T00:25:37.034Z,6.20
2023-05-20T00:28:06.131Z,4.27
2023-05-20T00:30:34.593Z,6.27
2023-05-20T00:33:03.079Z,8.43
2023-05-20T00:35:31.671Z,5.00
2023-05-20T00:38:00.159Z,5.97
2023-05-20T00:40:28.664Z,9.33
2023-05-20T00:42:58.493Z,8.30
2023-05-20T00:45:27.293Z,5.13
2023-05-20T00:47:59.574Z,6.70
2023-05-20T00:50:28.119Z,6.70
2023-05-20T00:52:56.988Z,5.27
2023-05-20T00:55:25.468Z,6.37
2023-05-20T00:57:54.128Z,5.97
2023-05-20T01:00:24.361Z,7.10
2023-05-20T01:02:52.998Z,9.37
2023-05-20T01:05:21.512Z,6.23
2023-05-20T01:07:50.153Z,7.43
2023-05-20T01:10:18.752Z,6.77
2023-05-20T01:12:48.547Z,6.67
2023-05-20T01:15:17.677Z,7.70
2023-05-20T01:17:48.550Z,7.80
2023-05-20T01:20:17.446Z,6.47
2023-05-20T01:22:55.257Z,7.33
2023-05-20T01:25:24.979Z,5.63
2023-05-20T01:27:53.875Z,5.77
2023-05-20T01:30:22.666Z,6.47
2023-05-20T01:32:52.838Z,5.33
2023-05-20T01:35:22.226Z,6.87
2023-05-20T01:37:51.334Z,5.53
2023-05-20T01:40:21.770Z,6.70
2023-05-20T01:42:53.463Z,7.23
2023-05-20T01:45:22.356Z,7.53
2023-05-20T01:47:50.858Z,6.20
2023-05-20T01:50:19.427Z,6.40
2023-05-20T01:52:47.840Z,6.73
2023-05-20T01:55:16.313Z,6.47
2023-05-20T01:57:46.270Z,5.93
2023-05-20T02:00:15.080Z,9.50
2023-05-20T02:02:43.661Z,6.80
2023-05-20T02:05:12.439Z,5.33
2023-05-20T02:07:40.941Z,5.80
2023-05-20T02:10:09.948Z,7.10
2023-05-20T02:12:38.749Z,7.10
2023-05-20T02:15:09.396Z,6.23
2023-05-20T02:17:37.887Z,5.27
2023-05-20T02:20:07.756Z,6.10
2023-05-20T02:22:36.150Z,6.20
2023-05-20T02:25:04.628Z,6.47
2023-05-20T02:27:32.988Z,8.53
2023-05-20T02:30:02.055Z,7.13
2023-05-20T02:32:33.688Z,7.80
2023-05-20T02:35:02.204Z,7.17
2023-05-20T02:37:30.611Z,6.93
2023-05-20T02:39:59.058Z,6.37
2023-05-20T02:42:27.534Z,7.13
2023-05-20T02:48:26.850Z,6.63
2023-05-20T02:50:55.200Z,6.30
2023-05-20T02:53:23.559Z,8.10
2023-05-20T02:55:52.144Z,7.27
2023-05-20T02:58:26.493Z,8.33
2023-05-20T03:00:55.086Z,7.43
2023-05-20T03:03:23.467Z,8.23
2023-05-20T03:05:53.243Z,7.07
2023-05-20T03:08:22.765Z,8.20
2023-05-20T03:10:51.649Z,5.97
2023-05-20T03:13:20.004Z,9.83
2023-05-20T03:15:48.458Z,7.77
2023-05-20T03:18:16.918Z,12.33
2023-05-20T03:20:46.180Z,6.33
2023-05-20T03:23:16.062Z,6.07
2023-05-20T03:25:44.545Z,6.50
2023-05-20T03:28:12.925Z,7.07
2023-05-20T03:30:41.468Z,10.77
2023-05-20T03:33:10.717Z,11.40
2023-05-20T03:35:39.179Z,10.20
2023-05-20T03:38:07.692Z,8.80
2023-05-20T03:40:37.502Z,10.00
2023-05-20T03:43:05.846Z,8.70
2023-05-20T03:45:35.040Z,7.13
2023-05-20T03:48:04.533Z,9.33
2023-05-20T03:50:32.990Z,7.27
2023-05-20T03:53:01.397Z,10.43
2023-05-20T03:55:29.812Z,7.40
2023-05-20T03:58:00.491Z,8.47
2023-05-20T04:00:30.781Z,15.27
2023-05-20T04:02:59.323Z,11.27
2023-05-20T04:05:27.888Z,13.23
2023-05-20T04:07:57.468Z,9.80
2023-05-20T04:10:25.958Z,11.90
2023-05-20T04:12:54.957Z,10.37
2023-05-20T04:15:25.271Z,9.53
2023-05-20T04:17:54.331Z,12.23
2023-05-20T04:20:22.819Z,17.13
2023-05-20T04:22:52.347Z,12.17
2023-05-20T04:25:21.179Z,11.43
2023-05-20T04:27:49.865Z,10.10
2023-05-20T04:30:18.924Z,12.90
2023-05-20T04:32:50.725Z,13.67
2023-05-20T04:35:19.444Z,12.37
2023-05-20T04:37:49.065Z,10.73
2023-05-20T04:40:19.160Z,13.10
2023-05-20T04:42:47.580Z,12.43
2023-05-20T04:45:16.044Z,18.23
2023-05-20T04:47:46.109Z,14.23
2023-05-20T04:50:15.985Z,14.23
2023-05-20T04:52:45.908Z,12.00
2023-05-20T04:55:15.984Z,12.30
2023-05-20T04:57:44.416Z,12.43
2023-05-20T05:00:13.795Z,10.03
2023-05-20T05:02:42.395Z,11.07
2023-05-20T05:05:11.223Z,11.83
2023-05-20T05:07:41.028Z,12.67
2023-05-20T05:10:10.108Z,13.57
2023-05-20T05:12:38.551Z,11.80
2023-05-20T05:15:07.440Z,12.77
2023-05-20T05:17:35.908Z,9.57
2023-05-20T05:20:04.401Z,14.60
2023-05-20T05:22:33.058Z,12.90
2023-05-20T05:25:02.866Z,13.70
2023-05-20T05:27:31.374Z,12.40
2023-05-20T05:29:59.849Z,12.40
2023-05-20T05:32:28.530Z,14.97
2023-05-20T05:34:57.077Z,11.87
2023-05-20T05:37:25.651Z,13.43
2023-05-20T05:39:54.124Z,12.23
2023-05-20T05:42:23.924Z,14.50
2023-05-20T05:44:52.552Z,11.50
2023-05-20T05:47:20.998Z,12.70
2023-05-20T05:49:49.743Z,13.67
2023-05-20T05:52:18.192Z,13.20
2023-05-20T05:54:46.634Z,11.37
2023-05-20T05:57:15.430Z,12.40
2023-05-20T05:59:45.245Z,12.93
2023-05-20T06:02:14.752Z,11.77
2023-05-20T06:04:43.288Z,12.87
2023-05-20T06:07:11.854Z,12.57
2023-05-20T06:09:40.506Z,13.13
2023-05-20T06:12:09.248Z,14.30
2023-05-20T06:14:37.682Z,15.23
2023-05-20T06:17:07.724Z,12.00
2023-05-20T06:19:36.444Z,12.87
2023-05-20T06:22:05.142Z,13.70
2023-05-20T06:24:33.534Z,14.27
2023-05-20T06:27:03.129Z,13.20
2023-05-20T06:29:31.674Z,12.33
2023-05-20T06:32:00.206Z,12.70
2023-05-20T06:34:30.009Z,13.33
2023-05-20T06:36:58.443Z,12.57
2023-05-20T06:39:26.923Z,14.43
2023-05-20T06:41:55.488Z,14.33
2023-05-20T06:44:23.916Z,25.27
2023-05-20T06:46:52.537Z,35.60
2023-05-20T06:49:21.113Z,20.50
2023-05-20T06:51:51.062Z,14.40
2023-05-20T06:54:19.437Z,13.33
2023-05-20T06:56:47.832Z,13.10
2023-05-20T06:59:16.247Z,14.70
2023-05-20T07:01:44.766Z,13.63
2023-05-20T07:04:13.393Z,17.13
2023-05-20T07:06:41.906Z,16.97
2023-05-20T07:09:11.872Z,14.73
2023-05-20T07:11:40.314Z,14.13
2023-05-20T07:14:09.176Z,14.47
2023-05-20T07:16:37.678Z,16.67
2023-05-20T07:19:06.269Z,13.13
2023-05-20T07:21:34.729Z,13.50
2023-05-20T07:24:03.135Z,15.70
2023-05-20T07:26:36.275Z,29.50
2023-05-20T07:29:05.123Z,20.77
2023-05-20T07:31:33.590Z,16.97
2023-05-20T07:34:02.098Z,15.73
2023-05-20T07:36:30.826Z,18.10
2023-05-20T07:39:03.889Z,13.30
2023-05-20T07:41:34.941Z,15.83
2023-05-20T07:44:04.262Z,12.37
2023-05-20T07:46:32.846Z,16.10
2023-05-20T07:49:01.453Z,15.07
2023-05-20T07:51:29.877Z,16.53
2023-05-20T07:53:58.305Z,14.77
2023-05-20T07:56:26.850Z,14.93
2023-05-20T07:58:58.362Z,15.83
2023-05-20T08:01:27.184Z,15.43
2023-05-20T08:03:55.898Z,16.30
2023-05-20T08:06:27.320Z,14.10
2023-05-20T08:08:57.306Z,14.77
2023-05-20T08:11:26.027Z,13.60
2023-05-20T08:13:55.879Z,15.90
2023-05-20T08:16:24.346Z,14.40
2023-05-20T08:18:52.871Z,17.40
2023-05-20T08:21:21.792Z,17.20
2023-05-20T08:23:50.282Z,15.67
2023-05-20T08:26:18.744Z,38.53
2023-05-20T08:28:47.356Z,44.47
2023-05-20T08:31:18.308Z,20.67
2023-05-20T08:33:46.867Z,14.60
2023-05-20T08:36:16.141Z,16.73
2023-05-20T08:38:44.592Z,14.03
2023-05-20T08:41:13.312Z,18.13
2023-05-20T08:43:41.835Z,13.20
2023-05-20T08:46:11.626Z,14.37
2023-05-20T08:48:41.875Z,16.80
2023-05-20T08:51:11.705Z,16.30
2023-05-20T08:53:40.148Z,16.37
2023-05-20T08:56:09.640Z,13.30
2023-05-20T08:58:38.088Z,12.60
2023-05-20T09:01:07.887Z,14.43
2023-05-20T09:03:36.335Z,19.23
2023-05-20T09:06:10.110Z,18.60
2023-05-20T09:08:38.715Z,14.30
2023-05-20T09:11:07.257Z,15.97
2023-05-20T09:13:35.786Z,13.77
2023-05-20T09:16:04.303Z,12.57
2023-05-20T09:18:33.077Z,13.97
2023-05-20T09:21:07.025Z,14.37
2023-05-20T09:23:38.798Z,14.20
2023-05-20T09:26:07.649Z,13.90
2023-05-20T09:28:38.463Z,15.03
2023-05-20T09:31:08.892Z,13.20
2023-05-20T09:33:38.974Z,14.67
2023-05-20T09:36:09.370Z,15.93
2023-05-20T09:38:40.665Z,17.63
2023-05-20T09:41:10.015Z,16.90
2023-05-20T09:43:38.698Z,15.50
2023-05-20T09:46:07.426Z,15.57
2023-05-20T09:48:37.490Z,14.30
2023-05-20T09:51:07.293Z,14.30
2023-05-20T09:53:35.738Z,16.13
2023-05-20T09:56:05.947Z,12.67
2023-05-20T09:58:35.806Z,33.83
2023-05-20T10:01:04.296Z,21.63
2023-05-20T10:03:34.363Z,15.43
2023-05-20T10:06:31.692Z,17.53
2023-05-20T10:09:21.039Z,13.33
2023-05-20T10:11:56.660Z,13.33
2023-05-20T10:14:34.080Z,13.97
2023-05-20T10:17:10.143Z,13.27
2023-05-20T10:19:38.745Z,14.97
2023-05-20T10:22:08.623Z,14.33
2023-05-20T10:24:38.224Z,14.23
2023-05-20T10:27:10.645Z,12.83
2023-05-20T10:29:45.998Z,15.20
2023-05-20T10:32:14.575Z,12.93
2023-05-20T10:34:47.922Z,15.87
2023-05-20T10:37:27.418Z,13.27
2023-05-20T10:40:05.361Z,13.17
2023-05-20T10:42:35.293Z,14.33
2023-05-20T10:45:03.888Z,16.70
2023-05-20T10:47:32.671Z,15.97
2023-05-20T10:50:02.254Z,15.10
2023-05-20T10:52:34.666Z,13.40
2023-05-20T10:55:04.524Z,14.77
2023-05-20T10:57:33.269Z,85.00
2023-05-20T11:00:05.569Z,18.13
2023-05-20T11:02:34.748Z,13.57
2023-05-20T11:05:04.398Z,12.93
2023-05-20T11:07:34.171Z,15.60
2023-05-20T11:10:03.823Z,17.23
2023-05-20T11:12:32.298Z,19.10
2023-05-20T11:15:02.267Z,12.67
2023-05-20T11:17:35.713Z,14.77
2023-05-20T11:20:04.873Z,13.40
2023-05-20T11:22:35.138Z,15.47
2023-05-20T11:25:09.811Z,15.37
2023-05-20T11:27:41.414Z,12.03
2023-05-20T11:30:11.228Z,13.27
2023-05-20T11:32:41.281Z,14.33
2023-05-20T11:35:10.253Z,14.03
2023-05-20T11:37:38.729Z,13.47
2023-05-20T11:40:09.081Z,13.03
2023-05-20T11:42:38.281Z,16.53
2023-05-20T11:45:07.269Z,15.20
2023-05-20T11:47:35.778Z,16.27
2023-05-20T11:50:07.510Z,12.90
2023-05-20T11:52:36.079Z,13.33
2023-05-20T11:55:04.783Z,11.70
2023-05-20T11:57:33.452Z,14.37
2023-05-20T12:00:02.083Z,15.07
2023-05-20T12:02:30.597Z,13.53
2023-05-20T12:04:59.407Z,14.10
2023-05-20T12:07:29.517Z,14.93
2023-05-20T12:09:58.052Z,12.40
2023-05-20T12:12:26.536Z,16.93
2023-05-20T12:14:54.999Z,14.40
2023-05-20T12:17:23.488Z,12.37
2023-05-20T12:19:51.983Z,12.80
2023-05-20T12:22:20.558Z,13.37
2023-05-20T12:24:53.608Z,14.30
2023-05-20T12:27:23.183Z,12.87
2023-05-20T12:29:51.586Z,13.13
2023-05-20T12:32:21.140Z,13.53
2023-05-20T12:34:49.613Z,15.37
2023-05-20T12:37:18.265Z,13.40
2023-05-20T12:39:46.763Z,11.27
2023-05-20T12:42:16.651Z,13.77
2023-05-20T12:44:45.102Z,12.63
2023-05-20T12:47:13.627Z,14.60
2023-05-20T12:49:42.105Z,12.00
2023-05-20T12:52:19.002Z,12.87
2023-05-20T12:54:50.416Z,12.67
2023-05-20T12:57:20.387Z,15.20
2023-05-20T12:59:48.998Z,13.47
2023-05-20T13:02:17.611Z,14.00
2023-05-20T13:04:46.080Z,12.37
2023-05-20T13:07:14.601Z,11.73
2023-05-20T13:09:43.139Z,14.63
2023-05-20T13:12:11.809Z,12.67
2023-05-20T13:14:41.721Z,14.60
2023-05-20T13:17:10.612Z,13.73
2023-05-20T13:19:39.279Z,13.00
2023-05-20T13:22:09.053Z,14.57
2023-05-20T13:24:37.491Z,11.70
2023-05-20T13:27:06.340Z,11.10
2023-05-20T13:29:34.781Z,18.40
2023-05-20T13:32:05.100Z,14.60
2023-05-20T13:34:33.616Z,38.27
2023-05-20T13:37:02.117Z,18.07
2023-05-20T13:39:30.724Z,16.80
2023-05-20T13:41:59.163Z,14.83
2023-05-20T13:44:27.650Z,14.67
2023-05-20T13:46:56.232Z,13.57
2023-05-20T13:49:26.572Z,12.93
2023-05-20T13:51:55.013Z,13.03
2023-05-20T13:54:23.465Z,16.13
2023-05-20T13:56:52.183Z,14.27
2023-05-20T13:59:20.764Z,15.00
2023-05-20T14:01:49.204Z,24.80
2023-05-20T14:04:17.714Z,15.07
2023-05-20T14:06:48.147Z,12.97
2023-05-20T14:09:16.599Z,15.30
2023-05-20T14:11:45.128Z,15.13
2023-05-20T14:14:13.596Z,15.43
2023-05-20T14:16:42.073Z,16.00
2023-05-20T14:19:10.558Z,14.77
2023-05-20T14:21:39.059Z,15.77
2023-05-20T14:24:09.101Z,18.37
2023-05-20T14:26:37.629Z,17.57
2023-05-20T14:29:06.087Z,16.13
2023-05-20T14:31:34.503Z,16.17
2023-05-20T14:34:03.008Z,16.43
2023-05-20T14:36:32.188Z,16.37
2023-05-20T14:39:00.653Z,21.30
2023-05-20T14:41:30.602Z,16.77
2023-05-20T14:43:59.143Z,17.70
2023-05-20T14:46:28.589Z,19.27
2023-05-20T14:48:57.046Z,16.03
2023-05-20T14:51:25.517Z,17.77
2023-05-20T14:53:54.048Z,21.20
2023-05-20T14:56:22.738Z,20.67
2023-05-20T14:58:52.580Z,16.80
2023-05-20T15:01:21.261Z,24.40
2023-05-20T15:03:49.644Z,20.83
2023-05-20T15:06:18.122Z,20.90
2023-05-20T15:08:46.740Z,16.87
2023-05-20T15:11:15.148Z,17.43
2023-05-20T15:13:44.269Z,25.33
2023-05-20T15:16:14.351Z,20.57
2023-05-20T15:18:42.970Z,18.57
2023-05-20T15:21:11.490Z,23.00
2023-05-20T15:23:39.954Z,18.87
2023-05-20T15:26:08.448Z,15.70
2023-05-20T15:28:36.882Z,20.77
2023-05-20T15:31:05.322Z,18.40
2023-05-20T15:33:35.209Z,16.30
2023-05-20T15:36:03.904Z,16.87
2023-05-20T15:38:32.551Z,17.90
2023-05-20T15:41:00.980Z,24.13
2023-05-20T15:43:29.477Z,18.90
2023-05-20T15:45:57.981Z,17.10
2023-05-20T15:48:26.400Z,17.63
2023-05-20T15:50:56.267Z,16.20
2023-05-20T15:53:24.742Z,19.83
2023-05-20T15:55:53.513Z,19.83
2023-05-20T15:58:21.969Z,18.63
2023-05-20T16:00:50.828Z,17.73
2023-05-20T16:03:19.298Z,17.60
2023-05-20T16:05:47.708Z,19.10
2023-05-20T16:08:17.544Z,19.20
2023-05-20T16:10:46.216Z,15.10
2023-05-20T16:13:14.666Z,18.17
2023-05-20T16:15:43.121Z,19.93
2023-05-20T16:18:11.605Z,18.70
2023-05-20T16:20:40.136Z,19.93
2023-05-20T16:23:08.857Z,16.83
2023-05-20T16:25:38.611Z,22.33
2023-05-20T16:28:07.152Z,20.63
2023-05-20T16:30:36.828Z,19.83
2023-05-20T16:33:05.605Z,18.87
2023-05-20T16:35:34.059Z,20.27
2023-05-20T16:38:02.496Z,19.47
2023-05-20T16:40:31.233Z,19.30
2023-05-20T16:43:01.215Z,18.67
2023-05-20T16:45:29.654Z,19.20
2023-05-20T16:47:58.493Z,23.67
2023-05-20T16:50:26.996Z,16.87
2023-05-20T16:52:56.633Z,17.40
2023-05-20T16:55:25.075Z,18.93
2023-05-20T16:57:53.608Z,16.10
2023-05-20T17:00:23.494Z,15.30
2023-05-20T17:02:52.008Z,18.67
2023-05-20T17:05:20.536Z,17.57
2023-05-20T17:07:49.847Z,16.40
2023-05-20T17:10:18.341Z,18.80
2023-05-20T17:12:46.830Z,18.40
2023-05-20T17:15:15.312Z,19.23
2023-05-20T17:17:45.178Z,22.23
2023-05-20T17:20:14.097Z,22.60
2023-05-20T17:22:42.527Z,21.17
2023-05-20T17:25:11.466Z,24.00
2023-05-20T17:27:40.094Z,22.83
2023-05-20T17:30:09.270Z,16.93
2023-05-20T17:32:38.656Z,18.87
2023-05-20T17:35:09.108Z,16.30
2023-05-20T17:37:37.827Z,18.63
2023-05-20T17:40:06.933Z,18.73
2023-05-20T17:42:35.684Z,17.90
2023-05-20T17:45:04.060Z,19.60
2023-05-20T17:47:32.524Z,19.70
2023-05-20T17:50:02.618Z,21.53
2023-05-20T17:52:32.507Z,47.97
2023-05-20T17:55:00.993Z,22.67
2023-05-20T17:57:29.481Z,20.53
2023-05-20T17:59:57.916Z,22.03
2023-05-20T18:02:26.556Z,23.10
2023-05-20T18:04:55.041Z,23.93
2023-05-20T18:07:23.752Z,20.57
2023-05-20T18:09:53.587Z,21.80
2023-05-20T18:12:22.111Z,17.17
2023-05-20T18:14:50.597Z,22.93
2023-05-20T18:17:19.001Z,19.40
2023-05-20T18:19:47.492Z,20.47
2023-05-20T18:22:15.946Z,19.73
2023-05-20T18:24:44.429Z,21.07
2023-05-20T18:27:14.264Z,23.43
2023-05-20T18:29:42.744Z,18.70
2023-05-20T18:32:11.381Z,19.50
2023-05-20T18:34:39.914Z,19.83
2023-05-20T18:37:08.349Z,18.57
2023-05-20T18:39:36.779Z,21.40
2023-05-20T18:42:05.217Z,18.73
2023-05-20T18:44:35.022Z,21.23
2023-05-20T18:47:03.426Z,27.30
2023-05-20T18:49:31.876Z,62.23
2023-05-20T18:52:00.468Z,22.47
2023-05-20T18:54:28.985Z,30.00
2023-05-20T18:56:57.521Z,26.07
2023-05-20T18:59:25.948Z,32.53
2023-05-20T19:01:55.756Z,37.90
2023-05-20T19:04:25.133Z,33.57
2023-05-20T19:06:54.041Z,30.27
2023-05-20T19:09:22.556Z,25.37
2023-05-20T19:11:55.961Z,22.63
2023-05-20T19:14:24.400Z,23.90
2023-05-20T19:16:52.988Z,30.20
2023-05-20T19:19:22.945Z,29.27
2023-05-20T19:21:51.645Z,27.33
2023-05-20T19:24:20.227Z,22.73
2023-05-20T19:26:48.764Z,21.47
2023-05-20T19:29:17.241Z,23.80
2023-05-20T19:31:45.913Z,20.73
2023-05-20T19:34:14.357Z,22.30
2023-05-20T19:36:45.338Z,21.57
2023-05-20T19:39:13.914Z,22.03
2023-05-20T19:41:42.391Z,24.83
2023-05-20T19:44:10.976Z,23.93
2023-05-20T19:46:39.492Z,24.13
2023-05-20T19:49:07.890Z,24.30
2023-05-20T19:51:36.434Z,21.33
2023-05-20T19:54:06.298Z,24.60
2023-05-20T19:56:34.782Z,27.43
2023-05-20T19:59:03.905Z,23.50
2023-05-20T20:01:32.678Z,22.13
2023-05-20T20:04:01.223Z,25.37
2023-05-20T20:06:29.691Z,23.73
2023-05-20T20:08:58.214Z,24.23
2023-05-20T20:11:28.067Z,23.37
2023-05-20T20:13:58.425Z,24.37
2023-05-20T20:16:27.822Z,23.47
2023-05-20T20:18:56.595Z,22.80
2023-05-20T20:21:25.992Z,22.20
2023-05-20T20:23:54.484Z,24.40
2023-05-20T20:26:25.979Z,24.93
2023-05-20T20:28:56.043Z,24.43
2023-05-20T20:31:24.441Z,22.17
2023-05-20T20:33:53.665Z,22.83
2023-05-20T20:36:22.186Z,22.93
2023-05-20T20:38:50.739Z,30.67
2023-05-20T20:41:20.908Z,23.87
2023-05-20T20:43:49.419Z,23.87
2023-05-20T20:46:19.261Z,25.90
2023-05-20T20:48:47.824Z,23.53
2023-05-20T20:51:16.532Z,21.30
2023-05-20T20:53:46.470Z,24.03
2023-05-20T20:56:14.877Z,24.93
2023-05-20T20:58:45.051Z,93.47
2023-05-20T21:01:17.499Z,32.27
2023-05-20T21:03:48.446Z,30.23
2023-05-20T21:06:17.057Z,25.53
2023-05-20T21:08:45.681Z,23.50
2023-05-20T21:11:14.154Z,22.60
2023-05-20T21:13:42.623Z,21.77
2023-05-20T21:16:11.068Z,21.37
2023-05-20T21:18:39.507Z,21.43
2023-05-20T21:21:12.134Z,28.07
2023-05-20T21:23:40.833Z,24.90
2023-05-20T21:26:09.550Z,24.57
2023-05-20T21:28:38.147Z,19.97
2023-05-20T21:31:06.759Z,23.20
2023-05-20T21:33:35.141Z,23.87
2023-05-20T21:36:03.945Z,26.37
2023-05-20T21:38:33.815Z,23.07
2023-05-20T21:41:02.636Z,23.73
2023-05-20T21:43:31.645Z,23.20
2023-05-20T21:46:00.272Z,20.40
2023-05-20T21:48:28.911Z,24.17
2023-05-20T21:50:57.470Z,21.83
2023-05-20T21:53:25.869Z,22.13
2023-05-20T21:55:55.874Z,25.70
2023-05-20T21:58:24.313Z,24.13
2023-05-20T22:00:52.765Z,21.50
2023-05-20T22:03:22.106Z,25.27
2023-05-20T22:05:50.672Z,27.17
2023-05-20T22:08:19.184Z,25.93
2023-05-20T22:10:48.410Z,23.00
2023-05-20T22:13:20.610Z,23.47
2023-05-20T22:15:49.144Z,25.13
2023-05-20T22:18:17.695Z,27.20
2023-05-20T22:20:46.133Z,25.80
2023-05-20T22:23:14.601Z,22.20
2023-05-20T22:25:43.200Z,25.67
2023-05-20T22:28:11.695Z,22.97
2023-05-20T22:30:42.156Z,23.77
2023-05-20T22:33:11.622Z,23.57
2023-05-20T22:35:40.175Z,28.20
2023-05-20T22:38:08.679Z,26.23
2023-05-20T22:40:37.239Z,26.03
2023-05-20T22:43:05.700Z,26.30
2023-05-20T22:45:34.501Z,25.43
2023-05-20T22:48:04.834Z,24.00
2023-05-20T22:50:35.424Z,21.90
2023-05-20T22:53:03.910Z,26.33
2023-05-20T22:55:32.331Z,22.77
2023-05-20T22:58:00.898Z,26.93
2023-05-20T23:00:29.579Z,25.53
2023-05-20T23:02:58.620Z,28.93
2023-05-20T23:05:30.113Z,27.67
2023-05-20T23:07:58.681Z,22.50
2023-05-20T23:10:27.189Z,23.30
2023-05-20T23:12:55.635Z,25.20
2023-05-20T23:15:25.231Z,23.87
2023-05-20T23:17:53.778Z,27.57
2023-05-20T23:20:23.118Z,26.30
2023-05-20T23:22:53.006Z,27.17
2023-05-20T23:25:21.990Z,22.87
2023-05-20T23:27:51.014Z,22.47
2023-05-20T23:30:19.621Z,26.47
2023-05-20T23:32:48.139Z,28.90
2023-05-20T23:35:18.455Z,22.03
2023-05-20T23:37:47.143Z,22.37
2023-05-20T23:40:17.335Z,26.60
2023-05-20T23:42:45.994Z,23.70
2023-05-20T23:45:14.465Z,23.50
2023-05-20T23:47:43.584Z,23.23
2023-05-20T23:50:13.279Z,22.27
2023-05-20T23:52:41.729Z,29.47
2023-05-20T23:55:13.040Z,24.13
2023-05-20T23:57:43.137Z,24.47
